createdAt,value
2024-03-08T00:00:34.428Z,3.09
2024-03-08T00:03:04.372Z,3.13
2024-03-08T00:05:33.788Z,3.05
2024-03-08T00:08:02.633Z,2.92
2024-03-08T00:10:30.890Z,2.88
2024-03-08T00:12:59.156Z,2.77
2024-03-08T00:15:27.391Z,2.80
2024-03-08T00:17:55.405Z,2.79
2024-03-08T00:20:24.766Z,2.77
2024-03-08T00:22:52.602Z,2.75
2024-03-08T00:25:21.079Z,2.73
2024-03-08T00:27:50.619Z,2.78
2024-03-08T00:30:18.795Z,2.72
2024-03-08T00:32:47.099Z,2.70
2024-03-08T00:35:15.123Z,2.67
2024-03-08T00:37:44.484Z,2.62
2024-03-08T00:40:13.233Z,2.48
2024-03-08T00:42:42.607Z,2.59
2024-03-08T00:45:11.974Z,2.61
2024-03-08T00:47:40.665Z,2.60
2024-03-08T00:50:09.582Z,2.63
2024-03-08T00:52:37.917Z,2.66
2024-03-08T00:55:09.166Z,2.67
2024-03-08T00:57:37.138Z,2.68
2024-03-08T01:00:06.800Z,2.68
2024-03-08T01:02:36.809Z,2.65
2024-03-08T01:05:07.085Z,2.68
2024-03-08T01:07:35.111Z,2.72
2024-03-08T01:10:03.151Z,2.73
2024-03-08T01:12:32.447Z,2.74
2024-03-08T01:15:00.467Z,2.68
2024-03-08T01:17:28.608Z,2.66
2024-03-08T01:19:56.573Z,2.62
2024-03-08T01:22:24.793Z,2.67
2024-03-08T01:24:52.702Z,2.67
2024-03-08T01:27:20.540Z,2.68
2024-03-08T01:29:50.091Z,2.65
2024-03-08T01:32:18.198Z,2.66
2024-03-08T01:34:46.809Z,2.61
2024-03-08T01:37:15.668Z,2.59
2024-03-08T01:39:43.653Z,2.52
2024-03-08T01:42:13.792Z,2.59
2024-03-08T01:44:41.718Z,2.58
2024-03-08T01:47:11.092Z,2.53
2024-03-08T01:49:39.527Z,2.58
2024-03-08T01:52:08.314Z,2.57
2024-03-08T01:54:37.796Z,2.56
2024-03-08T01:57:06.123Z,2.54
2024-03-08T01:59:34.406Z,2.55
2024-03-08T02:02:04.298Z,2.55
2024-03-08T02:04:34.057Z,2.55
2024-03-08T02:07:01.930Z,2.50
2024-03-08T02:09:30.084Z,2.46
2024-03-08T02:11:59.536Z,2.43
2024-03-08T02:14:33.059Z,2.47
2024-03-08T02:17:03.250Z,2.42
2024-03-08T02:19:31.298Z,2.40
2024-03-08T02:22:00.907Z,2.39
2024-03-08T02:24:28.803Z,2.39
2024-03-08T02:26:57.649Z,2.36
2024-03-08T02:29:26.658Z,2.37
2024-03-08T02:31:54.713Z,2.34
2024-03-08T02:34:22.612Z,2.35
2024-03-08T02:36:50.485Z,2.29
2024-03-08T02:39:20.960Z,2.37
2024-03-08T02:41:48.934Z,2.34
2024-03-08T02:44:17.043Z,2.28
2024-03-08T02:46:44.899Z,2.23
2024-03-08T02:49:12.866Z,2.23
2024-03-08T02:51:41.691Z,2.24
2024-03-08T02:54:11.546Z,2.24
2024-03-08T02:56:41.097Z,2.20
2024-03-08T02:59:09.779Z,2.21
2024-03-08T03:01:37.736Z,2.19
2024-03-08T03:04:06.008Z,2.20
2024-03-08T03:06:34.837Z,2.14
2024-03-08T03:09:02.824Z,2.12
2024-03-08T03:11:30.836Z,2.09
2024-03-08T03:14:00.141Z,2.05
2024-03-08T03:16:28.000Z,2.06
2024-03-08T03:18:57.154Z,2.05
2024-03-08T03:21:25.113Z,2.02
2024-03-08T03:23:53.912Z,2.01
2024-03-08T03:26:23.040Z,1.97
2024-03-08T03:28:50.940Z,1.92
2024-03-08T03:31:20.268Z,1.90
2024-03-08T03:33:48.387Z,1.83
2024-03-08T03:36:17.618Z,1.85
2024-03-08T03:38:45.703Z,1.85
2024-03-08T03:41:15.470Z,1.85
2024-03-08T03:43:43.400Z,1.86
2024-03-08T03:46:11.894Z,1.84
2024-03-08T03:48:44.636Z,1.78
2024-03-08T03:51:12.723Z,1.78
2024-03-08T03:53:40.769Z,1.76
2024-03-08T03:56:08.953Z,1.78
2024-03-08T03:58:37.613Z,1.78
2024-03-08T04:01:07.391Z,1.80
2024-03-08T04:03:35.409Z,1.74
2024-03-08T04:06:05.785Z,1.75
2024-03-08T04:08:35.280Z,1.78
2024-03-08T04:11:03.669Z,1.78
2024-03-08T04:13:31.513Z,1.78
2024-03-08T04:15:59.326Z,1.76
2024-03-08T04:18:27.352Z,1.77
2024-03-08T04:20:55.291Z,1.76
2024-03-08T04:23:24.622Z,1.72
2024-03-08T04:25:52.425Z,1.73
2024-03-08T04:28:20.323Z,1.74
2024-03-08T04:30:48.257Z,1.71
2024-03-08T04:33:17.669Z,1.74
2024-03-08T04:35:47.160Z,1.71
2024-03-08T04:38:15.271Z,1.70
2024-03-08T04:40:44.711Z,1.67
2024-03-08T04:43:13.494Z,1.63
2024-03-08T04:45:43.454Z,1.63
2024-03-08T04:48:12.909Z,1.59
2024-03-08T04:50:41.184Z,1.60
2024-03-08T04:53:09.844Z,1.59
2024-03-08T04:55:38.557Z,1.55
2024-03-08T04:58:08.074Z,1.59
2024-03-08T05:00:36.352Z,1.51
2024-03-08T05:03:06.003Z,1.53
2024-03-08T05:05:34.504Z,1.55
2024-03-08T05:08:03.925Z,1.52
2024-03-08T05:10:32.090Z,1.51
2024-03-08T05:13:00.044Z,1.45
2024-03-08T05:15:29.344Z,1.46
2024-03-08T05:17:59.166Z,1.46
2024-03-08T05:20:27.265Z,1.46
2024-03-08T05:22:55.177Z,1.45
2024-03-08T05:25:23.339Z,1.42
2024-03-08T05:27:51.300Z,1.45
2024-03-08T05:30:19.575Z,1.45
2024-03-08T05:32:48.986Z,1.50
2024-03-08T05:35:17.638Z,1.46
2024-03-08T05:37:45.897Z,1.47
2024-03-08T05:40:17.219Z,1.45
2024-03-08T05:42:46.954Z,1.40
2024-03-08T05:45:16.292Z,1.33
2024-03-08T05:47:44.368Z,1.30
2024-03-08T05:50:13.768Z,1.22
2024-03-08T05:52:41.815Z,1.18
2024-03-08T05:55:11.328Z,1.15
2024-03-08T05:57:41.240Z,1.12
2024-03-08T06:00:12.285Z,1.11
2024-03-08T06:02:43.143Z,1.10
2024-03-08T06:05:13.233Z,1.08
2024-03-08T06:07:41.728Z,0.93
2024-03-08T06:10:14.126Z,0.88
2024-03-08T06:12:42.722Z,0.76
2024-03-08T06:15:15.831Z,0.75
2024-03-08T06:17:44.414Z,0.76
2024-03-08T06:20:14.816Z,0.79
2024-03-08T06:22:43.202Z,0.73
2024-03-08T06:25:12.420Z,0.73
2024-03-08T06:27:40.480Z,0.76
2024-03-08T06:30:11.176Z,0.79
2024-03-08T06:32:39.728Z,0.80
2024-03-08T06:35:09.345Z,0.85
2024-03-08T06:37:41.504Z,0.91
2024-03-08T06:40:14.649Z,1.05
2024-03-08T06:42:44.260Z,1.33
2024-03-08T06:45:13.747Z,1.57
2024-03-08T06:47:42.942Z,1.89
2024-03-08T06:50:12.500Z,2.10
2024-03-08T06:52:43.569Z,2.34
2024-03-08T06:55:13.219Z,2.56
2024-03-08T06:57:41.812Z,2.72
2024-03-08T07:00:12.928Z,2.87
2024-03-08T07:02:41.916Z,3.04
2024-03-08T07:05:11.595Z,3.18
2024-03-08T07:07:42.518Z,3.37
2024-03-08T07:10:12.226Z,3.77
2024-03-08T07:12:40.428Z,3.69
2024-03-08T07:15:09.485Z,4.08
2024-03-08T07:17:38.024Z,4.22
2024-03-08T07:20:12.103Z,4.43
2024-03-08T07:22:42.588Z,4.34
2024-03-08T07:25:22.868Z,4.48
2024-03-08T07:27:52.544Z,4.69
2024-03-08T07:30:34.745Z,4.95
2024-03-08T07:33:03.962Z,4.78
2024-03-08T07:35:32.278Z,4.83
2024-03-08T07:38:01.663Z,5.20
2024-03-08T07:40:29.617Z,5.53
2024-03-08T07:42:57.745Z,5.70
2024-03-08T07:45:25.674Z,5.74
2024-03-08T07:47:54.672Z,5.89
2024-03-08T07:50:23.928Z,5.71
2024-03-08T07:52:52.142Z,5.88
2024-03-08T07:55:21.453Z,5.75
2024-03-08T07:57:49.760Z,6.56
2024-03-08T08:00:19.879Z,7.16
2024-03-08T08:02:47.910Z,6.62
2024-03-08T08:05:16.081Z,6.82
2024-03-08T08:07:48.539Z,6.59
2024-03-08T08:10:19.737Z,7.15
2024-03-08T08:12:49.326Z,6.96
2024-03-08T08:15:17.730Z,6.52
2024-03-08T08:17:46.031Z,6.61
2024-03-08T08:20:14.888Z,6.79
2024-03-08T08:22:44.287Z,6.94
2024-03-08T08:25:14.287Z,6.93
2024-03-08T08:27:43.774Z,7.18
2024-03-08T08:30:14.893Z,7.47
2024-03-08T08:32:43.548Z,7.88
2024-03-08T08:35:13.630Z,7.83
2024-03-08T08:37:41.859Z,7.69
2024-03-08T08:40:11.905Z,7.92
2024-03-08T08:42:39.931Z,8.47
2024-03-08T08:45:15.830Z,8.57
2024-03-08T08:47:48.066Z,9.14
2024-03-08T08:50:17.210Z,9.26
2024-03-08T08:52:45.354Z,9.05
2024-03-08T08:55:15.682Z,8.73
2024-03-08T08:57:44.014Z,9.17
2024-03-08T09:00:16.277Z,8.07
2024-03-08T09:02:44.668Z,8.29
2024-03-08T09:05:17.717Z,8.53
2024-03-08T09:07:46.746Z,8.70
2024-03-08T09:10:17.406Z,9.27
2024-03-08T09:12:47.058Z,8.93
2024-03-08T09:15:15.361Z,8.72
2024-03-08T09:17:44.298Z,9.07
2024-03-08T09:20:16.121Z,9.45
2024-03-08T09:22:46.992Z,10.29
2024-03-08T09:25:15.323Z,9.34
2024-03-08T09:27:43.303Z,10.52
2024-03-08T09:30:14.375Z,9.57
2024-03-08T09:32:42.541Z,9.86
2024-03-08T09:35:12.197Z,9.42
2024-03-08T09:37:41.442Z,9.54
2024-03-08T09:40:11.946Z,9.69
2024-03-08T09:42:40.010Z,9.99
2024-03-08T09:45:11.826Z,10.28
2024-03-08T09:47:42.845Z,9.77
2024-03-08T09:50:13.682Z,10.09
2024-03-08T09:52:45.393Z,10.93
2024-03-08T09:55:13.932Z,11.22
2024-03-08T09:57:43.812Z,10.58
2024-03-08T10:00:19.809Z,10.01
2024-03-08T10:02:47.968Z,10.27
2024-03-08T10:05:16.106Z,9.83
2024-03-08T10:07:45.380Z,10.60
2024-03-08T10:10:13.700Z,10.99
2024-03-08T10:12:41.808Z,10.64
2024-03-08T10:15:10.552Z,10.97
2024-03-08T10:17:38.789Z,10.65
2024-03-08T10:20:16.728Z,10.79
2024-03-08T10:22:57.842Z,10.29
2024-03-08T10:25:31.641Z,11.15
2024-03-08T10:27:59.528Z,11.14
2024-03-08T10:30:27.562Z,11.05
2024-03-08T10:32:55.827Z,11.56
2024-03-08T10:35:23.949Z,11.21
2024-03-08T10:38:00.681Z,11.53
2024-03-08T10:40:30.288Z,11.82
2024-03-08T10:42:59.966Z,11.23
2024-03-08T10:45:38.098Z,11.03
2024-03-08T10:48:35.654Z,10.97
2024-03-08T10:51:08.385Z,11.68
2024-03-08T10:53:42.507Z,12.01
2024-03-08T10:56:11.546Z,12.00
2024-03-08T10:58:40.465Z,12.11
2024-03-08T11:01:08.557Z,10.92
2024-03-08T11:03:54.502Z,11.11
2024-03-08T11:06:31.558Z,11.69
2024-03-08T11:09:01.452Z,11.52
2024-03-08T11:11:34.475Z,11.90
2024-03-08T11:14:05.857Z,11.64
2024-03-08T11:16:42.830Z,12.01
2024-03-08T11:19:27.167Z,11.93
2024-03-08T11:22:02.588Z,11.96
2024-03-08T11:24:40.956Z,11.95
2024-03-08T11:27:10.941Z,11.88
2024-03-08T11:29:40.959Z,12.03
2024-03-08T11:32:14.330Z,12.06
2024-03-08T11:34:45.765Z,11.88
2024-03-08T11:37:16.123Z,12.06
2024-03-08T11:39:50.738Z,12.36
2024-03-08T11:42:19.557Z,12.22
2024-03-08T11:44:48.774Z,11.98
2024-03-08T11:47:18.146Z,12.25
2024-03-08T11:49:48.827Z,11.81
2024-03-08T11:52:18.139Z,11.92
2024-03-08T11:54:59.024Z,12.26
2024-03-08T11:57:29.772Z,12.11
2024-03-08T11:59:58.682Z,12.27
2024-03-08T12:02:28.788Z,11.90
2024-03-08T12:05:01.679Z,12.20
2024-03-08T12:07:30.219Z,12.42
2024-03-08T12:10:19.920Z,12.26
2024-03-08T12:12:48.791Z,12.28
2024-03-08T12:15:19.160Z,12.45
2024-03-08T12:17:49.486Z,12.29
2024-03-08T12:20:19.469Z,11.98
2024-03-08T12:22:47.581Z,12.01
2024-03-08T12:25:17.383Z,12.03
2024-03-08T12:27:46.936Z,12.06
2024-03-08T12:30:21.246Z,12.66
2024-03-08T12:32:53.191Z,12.06
2024-03-08T12:35:23.195Z,12.35
2024-03-08T12:37:53.147Z,12.41
2024-03-08T12:40:22.531Z,12.31
2024-03-08T12:42:51.862Z,13.59
2024-03-08T12:45:19.972Z,13.31
2024-03-08T12:47:49.234Z,12.94
2024-03-08T12:50:17.977Z,12.90
2024-03-08T12:52:46.656Z,12.06
2024-03-08T12:55:15.414Z,12.47
2024-03-08T12:57:43.503Z,12.70
2024-03-08T13:00:20.006Z,12.34
2024-03-08T13:02:48.229Z,12.66
2024-03-08T13:05:16.406Z,12.95
2024-03-08T13:07:47.686Z,12.58
2024-03-08T13:10:16.825Z,12.33
2024-03-08T13:12:44.996Z,12.33
2024-03-08T13:15:17.232Z,12.03
2024-03-08T13:17:47.742Z,12.76
2024-03-08T13:20:27.793Z,12.74
2024-03-08T13:23:02.734Z,13.11
2024-03-08T13:25:30.825Z,12.86
2024-03-08T13:28:00.558Z,12.80
2024-03-08T13:30:31.881Z,12.49
2024-03-08T13:33:00.042Z,12.77
2024-03-08T13:35:29.406Z,13.08
2024-03-08T13:37:57.442Z,13.39
2024-03-08T13:40:25.625Z,13.39
2024-03-08T13:42:53.797Z,12.59
2024-03-08T13:45:24.850Z,12.92
2024-03-08T13:47:56.029Z,12.95
2024-03-08T13:50:24.831Z,12.52
2024-03-08T13:52:55.539Z,12.29
2024-03-08T13:55:26.921Z,12.22
2024-03-08T13:57:55.367Z,12.22
2024-03-08T14:00:26.239Z,12.24
2024-03-08T14:02:55.997Z,12.35
2024-03-08T14:05:24.188Z,12.71
2024-03-08T14:07:55.434Z,12.15
2024-03-08T14:10:24.567Z,12.68
2024-03-08T14:12:52.824Z,12.14
2024-03-08T14:15:21.566Z,12.10
2024-03-08T14:17:56.627Z,11.91
2024-03-08T14:20:26.760Z,11.88
2024-03-08T14:22:55.983Z,12.21
2024-03-08T14:25:24.911Z,12.23
2024-03-08T14:27:54.749Z,11.73
2024-03-08T14:30:36.523Z,12.01
2024-03-08T14:33:10.226Z,12.26
2024-03-08T14:35:38.384Z,12.80
2024-03-08T14:38:09.749Z,12.36
2024-03-08T14:40:39.243Z,11.97
2024-03-08T14:43:07.558Z,12.15
2024-03-08T14:45:36.031Z,12.17
2024-03-08T14:48:05.866Z,12.09
2024-03-08T14:50:38.111Z,12.25
2024-03-08T14:53:08.011Z,12.33
2024-03-08T14:55:36.381Z,11.71
2024-03-08T14:58:05.411Z,11.90
2024-03-08T15:00:35.990Z,11.79
2024-03-08T15:03:06.091Z,11.88
2024-03-08T15:05:39.390Z,11.83
2024-03-08T15:08:12.738Z,11.78
2024-03-08T15:10:43.148Z,11.69
2024-03-08T15:13:17.386Z,11.67
2024-03-08T15:15:46.784Z,11.75
2024-03-08T15:18:15.180Z,11.69
2024-03-08T15:20:44.542Z,11.56
2024-03-08T15:23:12.497Z,11.71
2024-03-08T15:25:43.262Z,11.71
2024-03-08T15:28:15.855Z,11.41
2024-03-08T15:30:47.851Z,11.38
2024-03-08T15:33:25.301Z,11.24
2024-03-08T15:36:00.024Z,11.08
2024-03-08T15:38:29.408Z,11.24
2024-03-08T15:40:57.885Z,11.08
2024-03-08T15:43:26.418Z,11.11
2024-03-08T15:45:55.766Z,10.96
2024-03-08T15:48:23.754Z,10.77
2024-03-08T15:50:52.082Z,10.79
2024-03-08T15:53:21.471Z,10.83
2024-03-08T15:55:50.468Z,10.90
2024-03-08T15:58:18.491Z,10.86
2024-03-08T16:00:49.119Z,10.72
2024-03-08T16:03:17.433Z,10.65
2024-03-08T16:05:46.269Z,10.60
2024-03-08T16:08:17.767Z,10.56
2024-03-08T16:10:51.053Z,10.47
2024-03-08T16:13:23.779Z,10.54
2024-03-08T16:15:53.092Z,10.53
2024-03-08T16:18:23.724Z,10.44
2024-03-08T16:20:52.962Z,10.42
2024-03-08T16:23:21.188Z,10.38
2024-03-08T16:25:50.898Z,10.38
2024-03-08T16:28:19.685Z,10.35
2024-03-08T16:30:49.542Z,10.23
2024-03-08T16:33:19.477Z,10.32
2024-03-08T16:35:47.914Z,10.18
2024-03-08T16:38:17.486Z,10.19
2024-03-08T16:40:48.557Z,10.14
2024-03-08T16:43:20.008Z,10.04
2024-03-08T16:45:51.770Z,10.11
2024-03-08T16:48:25.439Z,10.02
2024-03-08T16:50:55.616Z,10.03
2024-03-08T16:53:25.192Z,10.01
2024-03-08T16:55:54.086Z,9.96
2024-03-08T16:58:24.797Z,9.95
2024-03-08T17:00:52.757Z,9.92
2024-03-08T17:03:21.918Z,9.90
2024-03-08T17:05:55.310Z,9.81
2024-03-08T17:08:24.700Z,9.74
2024-03-08T17:10:53.503Z,9.74
2024-03-08T17:13:23.420Z,9.68
2024-03-08T17:15:51.336Z,9.62
2024-03-08T17:18:19.724Z,9.62
2024-03-08T17:20:47.737Z,9.65
2024-03-08T17:23:17.155Z,9.53
2024-03-08T17:25:47.601Z,9.59
2024-03-08T17:28:16.529Z,9.50
2024-03-08T17:30:47.992Z,9.49
2024-03-08T17:33:22.680Z,9.40
2024-03-08T17:35:53.784Z,9.36
2024-03-08T17:38:25.537Z,9.33
2024-03-08T17:40:53.739Z,9.30
2024-03-08T17:43:24.905Z,9.23
2024-03-08T17:45:56.590Z,9.27
2024-03-08T17:48:24.683Z,9.27
2024-03-08T17:50:55.058Z,9.13
2024-03-08T17:53:23.132Z,9.11
2024-03-08T17:55:53.063Z,9.08
2024-03-08T17:58:21.766Z,9.02
2024-03-08T18:00:52.405Z,9.00
2024-03-08T18:03:28.857Z,8.96
2024-03-08T18:05:57.521Z,8.89
2024-03-08T18:08:25.497Z,8.89
2024-03-08T18:10:53.992Z,8.73
2024-03-08T18:13:22.550Z,8.73
2024-03-08T18:15:50.774Z,8.72
2024-03-08T18:18:19.132Z,8.70
2024-03-08T18:20:49.949Z,8.64
2024-03-08T18:23:21.739Z,8.57
2024-03-08T18:25:49.922Z,8.46
2024-03-08T18:28:19.399Z,8.47
2024-03-08T18:30:50.694Z,8.46
2024-03-08T18:33:19.736Z,8.43
2024-03-08T18:35:49.447Z,8.41
2024-03-08T18:38:19.724Z,8.34
2024-03-08T18:40:49.144Z,8.27
2024-03-08T18:43:18.284Z,8.24
2024-03-08T18:45:46.790Z,8.24
2024-03-08T18:48:15.281Z,8.30
2024-03-08T18:50:46.380Z,8.25
2024-03-08T18:53:15.887Z,8.23
2024-03-08T18:55:44.555Z,8.22
2024-03-08T18:58:12.767Z,8.18
2024-03-08T19:00:42.474Z,8.21
2024-03-08T19:03:11.126Z,8.10
2024-03-08T19:05:41.714Z,8.02
2024-03-08T19:08:10.789Z,7.94
2024-03-08T19:10:41.725Z,7.88
2024-03-08T19:13:12.286Z,7.88
2024-03-08T19:15:40.178Z,7.82
2024-03-08T19:18:09.644Z,7.78
2024-03-08T19:20:38.667Z,7.82
2024-03-08T19:23:07.877Z,7.75
2024-03-08T19:25:42.182Z,7.64
2024-03-08T19:28:14.261Z,7.61
2024-03-08T19:30:42.732Z,7.62
2024-03-08T19:33:13.969Z,7.53
2024-03-08T19:35:43.412Z,7.52
2024-03-08T19:38:13.122Z,7.47
2024-03-08T19:40:43.808Z,7.43
2024-03-08T19:43:16.344Z,7.32
2024-03-08T19:45:46.413Z,7.41
2024-03-08T19:48:19.438Z,7.36
2024-03-08T19:50:49.340Z,7.31
2024-03-08T19:53:18.980Z,7.31
2024-03-08T19:55:52.167Z,7.27
2024-03-08T19:58:22.930Z,7.27
2024-03-08T20:00:51.551Z,7.20
2024-03-08T20:03:24.637Z,7.18
2024-03-08T20:05:55.061Z,7.17
2024-03-08T20:08:25.218Z,7.02
2024-03-08T20:10:53.979Z,7.01
2024-03-08T20:13:23.538Z,7.01
2024-03-08T20:15:55.442Z,7.01
2024-03-08T20:18:27.773Z,6.98
2024-03-08T20:20:56.203Z,7.01
2024-03-08T20:23:25.150Z,7.00
2024-03-08T20:25:53.466Z,7.04
2024-03-08T20:28:22.899Z,7.02
2024-03-08T20:30:52.029Z,7.01
2024-03-08T20:33:20.350Z,7.04
2024-03-08T20:35:51.278Z,7.08
2024-03-08T20:38:22.081Z,6.96
2024-03-08T20:40:51.525Z,6.95
2024-03-08T20:43:22.860Z,6.92
2024-03-08T20:45:53.796Z,6.89
2024-03-08T20:48:22.772Z,6.90
2024-03-08T20:50:52.359Z,6.87
2024-03-08T20:53:20.929Z,6.89
2024-03-08T20:55:51.391Z,6.86
2024-03-08T20:58:19.985Z,6.82
2024-03-08T21:00:55.459Z,6.86
2024-03-08T21:03:28.297Z,6.82
2024-03-08T21:05:57.364Z,6.81
2024-03-08T21:08:29.628Z,6.80
2024-03-08T21:10:59.624Z,6.73
2024-03-08T21:13:28.481Z,6.80
2024-03-08T21:15:57.385Z,6.78
2024-03-08T21:18:27.865Z,6.80
2024-03-08T21:20:56.840Z,6.80
2024-03-08T21:23:26.303Z,6.78
2024-03-08T21:25:54.601Z,6.78
2024-03-08T21:28:30.137Z,6.80
2024-03-08T21:31:00.256Z,6.80
2024-03-08T21:33:29.574Z,6.81
2024-03-08T21:35:57.446Z,6.75
2024-03-08T21:38:26.829Z,6.81
2024-03-08T21:41:02.464Z,6.71
2024-03-08T21:43:34.509Z,6.66
2024-03-08T21:46:03.072Z,6.59
2024-03-08T21:48:33.695Z,6.51
2024-03-08T21:51:01.834Z,6.48
2024-03-08T21:53:34.764Z,6.47
2024-03-08T21:56:04.778Z,6.42
2024-03-08T21:58:34.191Z,6.35
2024-03-08T22:01:02.297Z,6.32
2024-03-08T22:03:32.726Z,6.28
2024-03-08T22:06:05.392Z,6.26
2024-03-08T22:08:34.471Z,6.27
2024-03-08T22:11:02.726Z,6.28
2024-03-08T22:13:30.832Z,6.23
2024-03-08T22:15:58.804Z,6.22
2024-03-08T22:18:31.297Z,6.18
2024-03-08T22:20:59.311Z,6.19
2024-03-08T22:23:28.557Z,6.16
2024-03-08T22:25:56.496Z,6.15
2024-03-08T22:28:26.988Z,6.16
2024-03-08T22:30:55.658Z,6.20
2024-03-08T22:33:25.770Z,6.21
2024-03-08T22:35:55.185Z,6.23
2024-03-08T22:38:23.757Z,6.29
2024-03-08T22:40:53.080Z,6.29
2024-03-08T22:43:21.213Z,6.28
2024-03-08T22:45:50.266Z,6.27
2024-03-08T22:48:18.267Z,6.30
2024-03-08T22:50:46.580Z,6.29
2024-03-08T22:53:15.278Z,6.29
2024-03-08T22:55:43.646Z,6.30
2024-03-08T22:58:15.415Z,6.31
2024-03-08T23:00:56.909Z,6.29
2024-03-08T23:03:25.302Z,6.32
2024-03-08T23:05:53.976Z,6.33
2024-03-08T23:08:22.300Z,6.29
2024-03-08T23:10:50.646Z,6.25
2024-03-08T23:13:20.612Z,6.23
2024-03-08T23:15:48.445Z,6.18
2024-03-08T23:18:16.501Z,6.15
2024-03-08T23:20:44.513Z,6.12
2024-03-08T23:23:13.534Z,6.14
2024-03-08T23:25:42.876Z,6.15
2024-03-08T23:28:13.248Z,6.18
2024-03-08T23:30:45.643Z,6.17
2024-03-08T23:33:16.043Z,6.15
2024-03-08T23:35:45.786Z,6.09
2024-03-08T23:38:14.177Z,6.07
2024-03-08T23:40:42.490Z,6.08
2024-03-08T23:43:10.478Z,6.05
2024-03-08T23:45:39.198Z,6.03
2024-03-08T23:48:11.607Z,6.04
2024-03-08T23:50:39.790Z,6.02
2024-03-08T23:53:08.644Z,5.97
2024-03-08T23:55:38.882Z,5.95
2024-03-08T23:58:10.254Z,5.91
